PWSweather.com
Personal Weather Stations
Station Observations
FEDE1991
Gimnasia, ChivilcoyAR

GimnasiaChivilcoyAR

Lat: -34.8841772, Lon: -60.0315799

Elevation: 36

Station Type: WH1081

http://climachivilcoy.blogspot.com.ar/

Latest ConditionsUpdated 3:02:04 PM GMT-03:57 Sunday, May 26, 2019
Currently Today's Max Today's Min Today's Average
Temperature 65.1°F18.4°C 65.7°F18.7°C 50.9°F10.5°C 55.2°F12.9°C
Dew Point 62.1°F16.7°C 63.3°F17.4°C 50.9°F10.5°C 55.0°F12.8°C
Winds 9.2 mph W14.8 kmh W 11.4 mph -18.3 kmh - - 4.7 mph 7.6 kmh
Wind Gusts 13.0 mph20.9 kmh 16.8 mph27.0 kmh - -
Humidity 90% 100% 89% 99%
Pressure 29.62 in1003.0 mb 29.67 in1004.7 mb 29.62 in1003.0 mb -
Hour Temp Dew Point Humidity Winds Wind Gusts Pressure Precip Precip Rate Daily Precip Total
03:02 PM 65.1°F18.4°C 62.1°F16.7°C 90% 9.2 mph W14.8 kmh W 13.0 mph20.9 kmh 29.62 in1003.0 mb 0.00 in0.0 mm 0.00 in0.0 mm 0.00 in0.0 mm
02:51 PM 65.3°F18.5°C 62.2°F16.8°C 90% 6.0 mph NW9.7 kmh NW 9.8 mph15.8 kmh 29.62 in1003.0 mb 0.00 in0.0 mm 0.00 in0.0 mm 0.00 in0.0 mm
02:41 PM 65.7°F18.7°C 62.2°F16.8°C 89% 6.0 mph NW9.7 kmh NW 9.8 mph15.8 kmh 29.62 in1003.0 mb 0.00 in0.0 mm 0.00 in0.0 mm 0.00 in0.0 mm
02:31 PM 65.5°F18.6°C 62.2°F16.8°C 89% 6.9 mph NW11.1 kmh NW 13.0 mph20.9 kmh 29.62 in1003.0 mb 0.00 in0.0 mm 0.00 in0.0 mm 0.00 in0.0 mm
02:21 PM 65.1°F18.4°C 62.8°F17.1°C 92% 3.8 mph NW6.1 kmh NW 13.0 mph20.9 kmh 29.62 in1003.0 mb 0.00 in0.0 mm 0.00 in0.0 mm 0.00 in0.0 mm
02:11 PM 65.5°F18.6°C 63.3°F17.4°C 93% 6.0 mph NW9.7 kmh NW 11.4 mph18.3 kmh 29.63 in1003.4 mb 0.00 in0.0 mm 0.00 in0.0 mm 0.00 in0.0 mm
02:01 PM 64.8°F18.2°C 63.0°F17.2°C 94% 6.0 mph NW9.7 kmh NW 13.6 mph21.9 kmh 29.63 in1003.4 mb 0.00 in0.0 mm 0.00 in0.0 mm 0.00 in0.0 mm
01:51 PM 64.4°F18.0°C 62.6°F17.0°C 94% 10.7 mph NNW17.2 kmh NNW 13.6 mph21.9 kmh 29.63 in1003.4 mb 0.00 in0.0 mm 0.00 in0.0 mm 0.00 in0.0 mm
01:41 PM 64.2°F17.9°C 63.1°F17.3°C 96% 7.6 mph 12.2 kmh 13.0 mph20.9 kmh 29.64 in1003.7 mb 0.00 in0.0 mm 0.00 in0.0 mm 0.00 in0.0 mm
01:31 PM 63.7°F17.6°C 63.1°F17.3°C 98% 3.1 mph NNW5.0 kmh NNW 9.8 mph15.8 kmh 29.63 in1003.4 mb 0.00 in0.0 mm 0.00 in0.0 mm 0.00 in0.0 mm
01:21 PM 63.7°F17.6°C 63.1°F17.3°C 98% 5.4 mph 8.7 kmh 13.0 mph20.9 kmh 29.64 in1003.7 mb 0.00 in0.0 mm 0.00 in0.0 mm 0.00 in0.0 mm
01:10 PM 63.3°F17.4°C 63.0°F17.2°C 99% 6.9 mph NW11.1 kmh NW 14.5 mph23.3 kmh 29.64 in1003.7 mb 0.00 in0.0 mm 0.00 in0.0 mm 0.00 in0.0 mm
01:00 PM 63.1°F17.3°C 63.1°F17.3°C 100% 8.3 mph NW13.4 kmh NW 15.2 mph24.5 kmh 29.64 in1003.7 mb 0.00 in0.0 mm 0.00 in0.0 mm 0.00 in0.0 mm
12:50 PM 63.0°F17.2°C 63.0°F17.2°C 100% 11.4 mph NW18.3 kmh NW 15.2 mph24.5 kmh 29.65 in1004.1 mb 0.00 in0.0 mm 0.00 in0.0 mm 0.00 in0.0 mm
12:40 PM 63.0°F17.2°C 63.0°F17.2°C 100% 8.3 mph NW13.4 kmh NW 14.5 mph23.3 kmh 29.65 in1004.1 mb 0.00 in0.0 mm 0.00 in0.0 mm 0.00 in0.0 mm
12:30 PM 62.6°F17.0°C 62.6°F17.0°C 100% 4.5 mph 7.2 kmh 12.1 mph19.5 kmh 29.64 in1003.7 mb 0.00 in0.0 mm 0.00 in0.0 mm 0.00 in0.0 mm
12:20 PM 61.9°F16.6°C 61.9°F16.6°C 100% 6.9 mph 11.1 kmh 16.8 mph27.0 kmh 29.65 in1004.1 mb 0.00 in0.0 mm 0.00 in0.0 mm 0.00 in0.0 mm
12:10 PM 61.5°F16.4°C 61.5°F16.4°C 100% 6.9 mph 11.1 kmh 13.0 mph20.9 kmh 29.65 in1004.1 mb 0.00 in0.0 mm 0.00 in0.0 mm 0.00 in0.0 mm
12:00 PM 61.0°F16.1°C 61.0°F16.1°C 100% 7.6 mph NNW12.2 kmh NNW 11.4 mph18.3 kmh 29.65 in1004.1 mb 0.00 in0.0 mm 0.00 in0.0 mm 0.00 in0.0 mm
11:50 AM 60.3°F15.7°C 60.3°F15.7°C 100% 8.3 mph 13.4 kmh 15.2 mph24.5 kmh 29.65 in1004.1 mb 0.00 in0.0 mm 0.00 in0.0 mm 0.00 in0.0 mm
11:40 AM 60.1°F15.6°C 60.1°F15.6°C 100% 9.8 mph 15.8 kmh 14.5 mph23.3 kmh 29.65 in1004.1 mb 0.00 in0.0 mm 0.00 in0.0 mm 0.00 in0.0 mm
11:29 AM 59.2°F15.1°C 59.2°F15.1°C 100% 8.3 mph 13.4 kmh 10.7 mph17.2 kmh 29.66 in1004.4 mb 0.00 in0.0 mm 0.00 in0.0 mm 0.00 in0.0 mm
11:19 AM 58.8°F14.9°C 58.8°F14.9°C 100% 6.9 mph 11.1 kmh 12.1 mph19.5 kmh 29.66 in1004.4 mb 0.00 in0.0 mm 0.00 in0.0 mm 0.00 in0.0 mm
11:09 AM 58.1°F14.5°C 58.1°F14.5°C 100% 5.4 mph 8.7 kmh 12.1 mph19.5 kmh 29.65 in1004.1 mb 0.00 in0.0 mm 0.00 in0.0 mm 0.00 in0.0 mm
10:59 AM 57.6°F14.2°C 57.6°F14.2°C 100% 6.0 mph 9.7 kmh 12.1 mph19.5 kmh 29.66 in1004.4 mb 0.00 in0.0 mm 0.00 in0.0 mm 0.00 in0.0 mm
10:49 AM 57.2°F14.0°C 57.2°F14.0°C 100% 5.4 mph NNE8.7 kmh NNE 9.8 mph15.8 kmh 29.66 in1004.4 mb 0.00 in0.0 mm 0.00 in0.0 mm 0.00 in0.0 mm
10:39 AM 56.3°F13.5°C 56.3°F13.5°C 100% 5.4 mph NE8.7 kmh NE 13.6 mph21.9 kmh 29.66 in1004.4 mb 0.00 in0.0 mm 0.00 in0.0 mm 0.00 in0.0 mm
10:29 AM 55.9°F13.3°C 55.9°F13.3°C 100% 6.0 mph 9.7 kmh 9.8 mph15.8 kmh 29.66 in1004.4 mb 0.00 in0.0 mm 0.00 in0.0 mm 0.00 in0.0 mm
10:19 AM 55.0°F12.8°C 55.0°F12.8°C 100% 6.0 mph 9.7 kmh 10.7 mph17.2 kmh 29.66 in1004.4 mb 0.00 in0.0 mm 0.00 in0.0 mm 0.00 in0.0 mm
10:09 AM 54.7°F12.6°C 54.7°F12.6°C 100% 5.4 mph 8.7 kmh 11.4 mph18.3 kmh 29.66 in1004.4 mb 0.00 in0.0 mm 0.00 in0.0 mm 0.00 in0.0 mm
09:58 AM 54.1°F12.3°C 54.1°F12.3°C 100% 6.9 mph NNE11.1 kmh NNE 10.7 mph17.2 kmh 29.65 in1004.1 mb 0.00 in0.0 mm 0.00 in0.0 mm 0.00 in0.0 mm
09:48 AM 53.6°F12.0°C 53.6°F12.0°C 100% 6.9 mph NNE11.1 kmh NNE 9.8 mph15.8 kmh 29.65 in1004.1 mb 0.00 in0.0 mm 0.00 in0.0 mm 0.00 in0.0 mm
09:38 AM 53.1°F11.7°C 53.1°F11.7°C 100% 4.5 mph NNE7.2 kmh NNE 9.2 mph14.8 kmh 29.65 in1004.1 mb 0.00 in0.0 mm 0.00 in0.0 mm 0.00 in0.0 mm
09:28 AM 52.5°F11.4°C 52.5°F11.4°C 100% 4.5 mph NE7.2 kmh NE 6.9 mph11.1 kmh 29.65 in1004.1 mb 0.00 in0.0 mm 0.00 in0.0 mm 0.00 in0.0 mm
09:18 AM 52.3°F11.3°C 52.3°F11.3°C 100% 4.5 mph NNE7.2 kmh NNE 6.9 mph11.1 kmh 29.65 in1004.1 mb 0.00 in0.0 mm 0.00 in0.0 mm 0.00 in0.0 mm
09:08 AM 51.6°F10.9°C 51.6°F10.9°C 100% 4.5 mph NE7.2 kmh NE 6.9 mph11.1 kmh 29.65 in1004.1 mb 0.00 in0.0 mm 0.00 in0.0 mm 0.00 in0.0 mm
08:58 AM 51.6°F10.9°C 51.6°F10.9°C 100% 2.2 mph NE3.5 kmh NE 5.4 mph8.7 kmh 29.65 in1004.1 mb 0.00 in0.0 mm 0.00 in0.0 mm 0.00 in0.0 mm
08:48 AM 51.4°F10.8°C 51.4°F10.8°C 100% 1.6 mph NE2.6 kmh NE 4.5 mph7.2 kmh 29.65 in1004.1 mb 0.00 in0.0 mm 0.00 in0.0 mm 0.00 in0.0 mm
08:38 AM 51.3°F10.7°C 51.3°F10.7°C 100% 3.1 mph NE5.0 kmh NE 5.4 mph8.7 kmh 29.65 in1004.1 mb 0.00 in0.0 mm 0.00 in0.0 mm 0.00 in0.0 mm
08:28 AM 50.9°F10.5°C 50.9°F10.5°C 100% 3.1 mph NE5.0 kmh NE 5.4 mph8.7 kmh 29.65 in1004.1 mb 0.00 in0.0 mm 0.00 in0.0 mm 0.00 in0.0 mm
08:17 AM 51.1°F10.6°C 51.1°F10.6°C 100% 2.2 mph NE3.5 kmh NE 5.4 mph8.7 kmh 29.65 in1004.1 mb 0.00 in0.0 mm 0.00 in0.0 mm 0.00 in0.0 mm
08:07 AM 50.9°F10.5°C 50.9°F10.5°C 100% 3.1 mph NE5.0 kmh NE 6.0 mph9.7 kmh 29.65 in1004.1 mb 0.00 in0.0 mm 0.00 in0.0 mm 0.00 in0.0 mm
07:57 AM 51.1°F10.6°C 51.1°F10.6°C 100% 3.1 mph NE5.0 kmh NE 5.4 mph8.7 kmh 29.65 in1004.1 mb 0.00 in0.0 mm 0.00 in0.0 mm 0.00 in0.0 mm
07:47 AM 51.3°F10.7°C 51.3°F10.7°C 100% 1.6 mph 2.6 kmh 4.5 mph7.2 kmh 29.65 in1004.1 mb 0.00 in0.0 mm 0.00 in0.0 mm 0.00 in0.0 mm
07:37 AM 51.4°F10.8°C 51.4°F10.8°C 100% 2.2 mph NE3.5 kmh NE 5.4 mph8.7 kmh 29.64 in1003.7 mb 0.00 in0.0 mm 0.00 in0.0 mm 0.00 in0.0 mm
07:27 AM 51.6°F10.9°C 51.6°F10.9°C 100% 3.1 mph NE5.0 kmh NE 4.5 mph7.2 kmh 29.63 in1003.4 mb 0.00 in0.0 mm 0.00 in0.0 mm 0.00 in0.0 mm
07:17 AM 51.6°F10.9°C 51.6°F10.9°C 100% 2.2 mph NE3.5 kmh NE 4.5 mph7.2 kmh 29.64 in1003.7 mb 0.00 in0.0 mm 0.00 in0.0 mm 0.00 in0.0 mm
07:07 AM 51.6°F10.9°C 51.6°F10.9°C 100% 2.2 mph NE3.5 kmh NE 6.0 mph9.7 kmh 29.64 in1003.7 mb 0.00 in0.0 mm 0.00 in0.0 mm 0.00 in0.0 mm
06:57 AM 52.0°F11.1°C 52.0°F11.1°C 100% 3.1 mph NE5.0 kmh NE 5.4 mph8.7 kmh 29.64 in1003.7 mb 0.00 in0.0 mm 0.00 in0.0 mm 0.00 in0.0 mm
06:47 AM 51.8°F11.0°C 51.8°F11.0°C 100% 2.2 mph 3.5 kmh 6.0 mph9.7 kmh 29.64 in1003.7 mb 0.00 in0.0 mm 0.00 in0.0 mm 0.00 in0.0 mm
06:36 AM 52.0°F11.1°C 52.0°F11.1°C 100% 3.1 mph NE5.0 kmh NE 6.0 mph9.7 kmh 29.63 in1003.4 mb 0.00 in0.0 mm 0.00 in0.0 mm 0.00 in0.0 mm
06:26 AM 52.0°F11.1°C 52.0°F11.1°C 100% 3.1 mph NE5.0 kmh NE 6.0 mph9.7 kmh 29.63 in1003.4 mb 0.00 in0.0 mm 0.00 in0.0 mm 0.00 in0.0 mm
06:16 AM 51.8°F11.0°C 51.8°F11.0°C 100% 2.2 mph NE3.5 kmh NE 6.0 mph9.7 kmh 29.63 in1003.4 mb 0.00 in0.0 mm 0.00 in0.0 mm 0.00 in0.0 mm
06:06 AM 51.4°F10.8°C 51.4°F10.8°C 100% 3.8 mph 6.1 kmh 6.9 mph11.1 kmh 29.63 in1003.4 mb 0.00 in0.0 mm 0.00 in0.0 mm 0.00 in0.0 mm
05:56 AM 51.6°F10.9°C 51.6°F10.9°C 100% 3.8 mph NE6.1 kmh NE 5.4 mph8.7 kmh 29.63 in1003.4 mb 0.00 in0.0 mm 0.00 in0.0 mm 0.00 in0.0 mm
05:46 AM 51.4°F10.8°C 51.4°F10.8°C 100% 3.1 mph NE5.0 kmh NE 5.4 mph8.7 kmh 29.63 in1003.4 mb 0.00 in0.0 mm 0.00 in0.0 mm 0.00 in0.0 mm
05:36 AM 51.6°F10.9°C 51.6°F10.9°C 100% 2.2 mph NE3.5 kmh NE 5.4 mph8.7 kmh 29.63 in1003.4 mb 0.00 in0.0 mm 0.00 in0.0 mm 0.00 in0.0 mm
05:26 AM 51.6°F10.9°C 51.6°F10.9°C 100% 3.1 mph NE5.0 kmh NE 6.0 mph9.7 kmh 29.63 in1003.4 mb 0.00 in0.0 mm 0.00 in0.0 mm 0.00 in0.0 mm
05:16 AM 51.3°F10.7°C 51.3°F10.7°C 100% 3.1 mph NE5.0 kmh NE 5.4 mph8.7 kmh 29.63 in1003.4 mb 0.00 in0.0 mm 0.00 in0.0 mm 0.00 in0.0 mm
05:05 AM 51.8°F11.0°C 51.8°F11.0°C 100% 2.2 mph 3.5 kmh 6.0 mph9.7 kmh 29.63 in1003.4 mb 0.00 in0.0 mm 0.00 in0.0 mm 0.00 in0.0 mm
04:55 AM 51.8°F11.0°C 51.8°F11.0°C 100% 3.1 mph 5.0 kmh 6.9 mph11.1 kmh 29.63 in1003.4 mb 0.00 in0.0 mm 0.00 in0.0 mm 0.00 in0.0 mm
04:45 AM 51.6°F10.9°C 51.6°F10.9°C 100% 3.8 mph NE6.1 kmh NE 7.6 mph12.2 kmh 29.63 in1003.4 mb 0.00 in0.0 mm 0.00 in0.0 mm 0.00 in0.0 mm
04:35 AM 51.4°F10.8°C 51.4°F10.8°C 100% 4.5 mph NE7.2 kmh NE 8.3 mph13.4 kmh 29.63 in1003.4 mb 0.00 in0.0 mm 0.00 in0.0 mm 0.00 in0.0 mm
04:25 AM 51.4°F10.8°C 51.4°F10.8°C 100% 5.4 mph 8.7 kmh 7.6 mph12.2 kmh 29.63 in1003.4 mb 0.00 in0.0 mm 0.00 in0.0 mm 0.00 in0.0 mm
04:15 AM 51.8°F11.0°C 51.8°F11.0°C 100% 3.1 mph 5.0 kmh 6.9 mph11.1 kmh 29.64 in1003.7 mb 0.00 in0.0 mm 0.00 in0.0 mm 0.00 in0.0 mm
04:05 AM 51.6°F10.9°C 51.6°F10.9°C 100% 3.8 mph NE6.1 kmh NE 6.0 mph9.7 kmh 29.63 in1003.4 mb 0.00 in0.0 mm 0.00 in0.0 mm 0.00 in0.0 mm
03:55 AM 51.8°F11.0°C 51.8°F11.0°C 100% 3.1 mph NE5.0 kmh NE 6.0 mph9.7 kmh 29.64 in1003.7 mb 0.00 in0.0 mm 0.00 in0.0 mm 0.00 in0.0 mm
03:45 AM 51.6°F10.9°C 51.6°F10.9°C 100% 2.2 mph NE3.5 kmh NE 6.0 mph9.7 kmh 29.64 in1003.7 mb 0.00 in0.0 mm 0.00 in0.0 mm 0.00 in0.0 mm
03:35 AM 51.6°F10.9°C 51.6°F10.9°C 100% 3.1 mph 5.0 kmh 5.4 mph8.7 kmh 29.65 in1004.1 mb 0.00 in0.0 mm 0.00 in0.0 mm 0.00 in0.0 mm
03:24 AM 52.2°F11.2°C 52.2°F11.2°C 100% 3.1 mph NE5.0 kmh NE 6.9 mph11.1 kmh 29.65 in1004.1 mb 0.00 in0.0 mm 0.00 in0.0 mm 0.00 in0.0 mm
03:14 AM 52.0°F11.1°C 52.0°F11.1°C 100% 3.1 mph NE5.0 kmh NE 5.4 mph8.7 kmh 29.64 in1003.7 mb 0.00 in0.0 mm 0.00 in0.0 mm 0.00 in0.0 mm
03:04 AM 52.0°F11.1°C 52.0°F11.1°C 100% 2.2 mph 3.5 kmh -- 29.65 in1004.1 mb 0.00 in0.0 mm 0.00 in0.0 mm 0.00 in0.0 mm
03:02 AM 52.2°F11.2°C 52.2°F11.2°C 100% 2.2 mph 3.5 kmh -- 29.65 in1004.1 mb 0.00 in0.0 mm 0.00 in0.0 mm 0.00 in0.0 mm
02:59 AM 52.2°F11.2°C 52.2°F11.2°C 100% 2.2 mph 3.5 kmh 6.9 mph11.1 kmh 29.65 in1004.1 mb 0.00 in0.0 mm 0.00 in0.0 mm 0.00 in0.0 mm
02:49 AM 52.3°F11.3°C 52.3°F11.3°C 100% 3.8 mph NE6.1 kmh NE 7.6 mph12.2 kmh 29.65 in1004.1 mb 0.00 in0.0 mm 0.00 in0.0 mm 0.00 in0.0 mm
02:39 AM 52.5°F11.4°C 52.5°F11.4°C 100% 5.4 mph NE8.7 kmh NE 9.2 mph14.8 kmh 29.65 in1004.1 mb 0.00 in0.0 mm 0.00 in0.0 mm 0.00 in0.0 mm
02:29 AM 52.3°F11.3°C 52.3°F11.3°C 100% 3.1 mph NE5.0 kmh NE 9.2 mph14.8 kmh 29.65 in1004.1 mb 0.00 in0.0 mm 0.00 in0.0 mm 0.00 in0.0 mm
02:19 AM 52.5°F11.4°C 52.5°F11.4°C 100% 3.8 mph NE6.1 kmh NE 7.6 mph12.2 kmh 29.65 in1004.1 mb 0.00 in0.0 mm 0.00 in0.0 mm 0.00 in0.0 mm
02:09 AM 52.7°F11.5°C 52.7°F11.5°C 100% 4.5 mph 7.2 kmh 9.8 mph15.8 kmh 29.66 in1004.4 mb 0.00 in0.0 mm 0.00 in0.0 mm 0.00 in0.0 mm
01:59 AM 52.5°F11.4°C 52.5°F11.4°C 100% 4.5 mph 7.2 kmh 9.2 mph14.8 kmh 29.66 in1004.4 mb 0.00 in0.0 mm 0.00 in0.0 mm 0.00 in0.0 mm
01:48 AM 52.5°F11.4°C 52.5°F11.4°C 100% 4.5 mph NNE7.2 kmh NNE 9.8 mph15.8 kmh 29.66 in1004.4 mb 0.00 in0.0 mm 0.00 in0.0 mm 0.00 in0.0 mm
01:38 AM 52.7°F11.5°C 52.7°F11.5°C 100% 6.0 mph 9.7 kmh 9.8 mph15.8 kmh 29.66 in1004.4 mb 0.00 in0.0 mm 0.00 in0.0 mm 0.00 in0.0 mm
01:28 AM 52.7°F11.5°C 52.7°F11.5°C 100% 4.5 mph NE7.2 kmh NE 12.1 mph19.5 kmh 29.66 in1004.4 mb 0.00 in0.0 mm 0.00 in0.0 mm 0.00 in0.0 mm
01:18 AM 52.9°F11.6°C 52.9°F11.6°C 100% 4.5 mph 7.2 kmh 9.8 mph15.8 kmh 29.66 in1004.4 mb 0.00 in0.0 mm 0.00 in0.0 mm 0.00 in0.0 mm
01:08 AM 53.4°F11.9°C 53.4°F11.9°C 100% 7.6 mph 12.2 kmh 10.7 mph17.2 kmh 29.66 in1004.4 mb 0.00 in0.0 mm 0.00 in0.0 mm 0.00 in0.0 mm
12:58 AM 53.2°F11.8°C 53.2°F11.8°C 100% 6.9 mph NE11.1 kmh NE 10.7 mph17.2 kmh 29.67 in1004.7 mb 0.00 in0.0 mm 0.00 in0.0 mm 0.00 in0.0 mm
12:48 AM 53.2°F11.8°C 53.2°F11.8°C 100% 3.8 mph 6.1 kmh 9.2 mph14.8 kmh 29.67 in1004.7 mb 0.00 in0.0 mm 0.00 in0.0 mm 0.00 in0.0 mm
12:38 AM 53.2°F11.8°C 53.2°F11.8°C 100% 6.9 mph 11.1 kmh 11.4 mph18.3 kmh 29.67 in1004.7 mb 0.00 in0.0 mm 0.00 in0.0 mm 0.00 in0.0 mm
12:28 AM 53.6°F12.0°C 53.6°F12.0°C 100% 4.5 mph NE7.2 kmh NE 9.2 mph14.8 kmh 29.67 in1004.7 mb 0.00 in0.0 mm 0.00 in0.0 mm 0.00 in0.0 mm
12:18 AM 54.0°F12.2°C 54.0°F12.2°C 100% 4.5 mph NE7.2 kmh NE 9.8 mph15.8 kmh 29.67 in1004.7 mb 0.00 in0.0 mm 0.00 in0.0 mm 0.00 in0.0 mm
12:07 AM 53.8°F12.1°C 53.8°F12.1°C 100% 5.4 mph NNE8.7 kmh NNE 11.4 mph18.3 kmh 29.67 in1004.7 mb 0.00 in0.0 mm 0.00 in0.0 mm 0.00 in0.0 mm